createdAt,value
2023-05-05T00:01:08.675Z,14.50
2023-05-05T00:03:35.598Z,14.50
2023-05-05T00:06:02.750Z,14.40
2023-05-05T00:08:29.464Z,14.50
2023-05-05T00:10:56.203Z,14.40
2023-05-05T00:13:22.988Z,14.40
2023-05-05T00:15:50.651Z,14.40
2023-05-05T00:18:17.655Z,14.30
2023-05-05T00:20:44.822Z,14.30
2023-05-05T00:23:11.586Z,14.30
2023-05-05T00:25:38.280Z,14.30
2023-05-05T00:28:05.223Z,14.30
2023-05-05T00:30:31.918Z,14.30
2023-05-05T00:32:58.815Z,14.20
2023-05-05T00:35:25.629Z,14.20
2023-05-05T00:37:52.339Z,14.20
2023-05-05T00:40:19.106Z,14.20
2023-05-05T00:42:47.166Z,14.20
2023-05-05T00:45:19.478Z,14.20
2023-05-05T00:47:54.045Z,14.20
2023-05-05T00:50:28.576Z,14.10
2023-05-05T00:53:03.176Z,14.10
2023-05-05T00:55:30.108Z,14.10
2023-05-05T00:58:00.235Z,14.10
2023-05-05T01:00:27.319Z,14.00
2023-05-05T01:02:54.173Z,14.00
2023-05-05T01:05:22.353Z,13.90
2023-05-05T01:08:10.826Z,13.90
2023-05-05T01:10:53.287Z,13.90
2023-05-05T01:13:28.358Z,13.80
2023-05-05T01:16:07.778Z,13.80
2023-05-05T01:19:11.332Z,13.70
2023-05-05T01:21:42.442Z,13.70
2023-05-05T01:24:47.017Z,13.70
2023-05-05T01:27:25.750Z,13.60
2023-05-05T01:30:32.584Z,13.60
2023-05-05T01:33:02.846Z,13.60
2023-05-05T01:35:31.199Z,13.50
2023-05-05T01:38:03.111Z,13.40
2023-05-05T01:40:35.464Z,13.40
2023-05-05T01:43:02.188Z,13.40
2023-05-05T01:45:31.119Z,13.40
2023-05-05T01:47:57.869Z,13.40
2023-05-05T01:50:25.088Z,13.40
2023-05-05T01:52:51.789Z,13.30
2023-05-05T01:55:18.567Z,13.30
2023-05-05T01:57:45.291Z,13.30
2023-05-05T02:00:12.390Z,13.30
2023-05-05T02:02:39.160Z,13.30
2023-05-05T02:05:06.272Z,13.30
2023-05-05T02:07:33.228Z,13.20
2023-05-05T02:10:01.170Z,13.20
2023-05-05T02:12:28.401Z,13.20
2023-05-05T02:14:56.099Z,13.20
2023-05-05T02:17:24.709Z,13.20
2023-05-05T02:19:51.585Z,13.20
2023-05-05T02:22:18.336Z,13.20
2023-05-05T02:24:46.335Z,13.20
2023-05-05T02:27:13.151Z,13.20
2023-05-05T02:29:44.772Z,13.20
2023-05-05T02:32:17.090Z,13.30
2023-05-05T02:34:43.756Z,13.30
2023-05-05T02:37:12.597Z,13.30
2023-05-05T02:39:45.649Z,13.40
2023-05-05T02:42:15.302Z,13.40
2023-05-05T02:44:42.024Z,13.50
2023-05-05T02:47:11.203Z,13.50
2023-05-05T02:49:37.889Z,13.50
2023-05-05T02:52:04.655Z,13.50
2023-05-05T02:54:31.415Z,13.60
2023-05-05T02:56:58.152Z,13.60
2023-05-05T03:00:01.720Z,13.60
2023-05-05T03:02:31.892Z,13.70
2023-05-05T03:05:09.569Z,13.70
2023-05-05T03:08:16.284Z,13.70
2023-05-05T03:10:59.344Z,13.70
2023-05-05T03:13:29.092Z,13.70
2023-05-05T03:15:55.822Z,13.70
2023-05-05T03:18:22.955Z,13.70
2023-05-05T03:20:49.654Z,13.70
2023-05-05T03:23:16.374Z,13.70
2023-05-05T03:25:49.729Z,13.80
2023-05-05T03:28:16.918Z,13.80
2023-05-05T03:30:43.616Z,13.90
2023-05-05T03:33:11.053Z,13.90
2023-05-05T03:35:37.723Z,13.90
2023-05-05T03:38:04.410Z,13.90
2023-05-05T03:40:43.555Z,13.90
2023-05-05T03:43:11.116Z,14.00
2023-05-05T03:45:37.998Z,14.00
2023-05-05T03:48:05.276Z,14.00
2023-05-05T03:50:32.041Z,14.00
2023-05-05T03:52:58.739Z,14.10
2023-05-05T03:55:25.438Z,14.00
2023-05-05T03:57:52.153Z,14.10
2023-05-05T04:00:19.224Z,14.10
2023-05-05T04:02:45.992Z,14.00
2023-05-05T04:05:12.822Z,14.00
2023-05-05T04:07:39.540Z,14.00
2023-05-05T04:10:07.345Z,14.00
2023-05-05T04:12:34.298Z,14.00
2023-05-05T04:15:01.110Z,14.00
2023-05-05T04:17:28.221Z,13.90
2023-05-05T04:19:54.976Z,13.80
2023-05-05T04:22:21.709Z,13.80
2023-05-05T04:24:48.400Z,13.80
2023-05-05T04:27:15.112Z,13.80
2023-05-05T04:29:41.791Z,13.80
2023-05-05T04:32:08.571Z,13.80
2023-05-05T04:34:35.260Z,13.80
2023-05-05T04:37:01.991Z,13.80
2023-05-05T04:39:28.859Z,13.90
2023-05-05T04:41:55.591Z,13.80
2023-05-05T04:44:22.406Z,13.90
2023-05-05T04:46:49.503Z,13.90
2023-05-05T04:49:16.234Z,13.90
2023-05-05T04:51:42.949Z,14.00
2023-05-05T04:57:16.691Z,14.00
2023-05-05T04:59:43.420Z,14.00
2023-05-05T05:02:10.174Z,14.00
2023-05-05T05:04:36.880Z,14.00
2023-05-05T05:07:03.633Z,14.00
2023-05-05T05:09:30.312Z,14.00
2023-05-05T05:12:00.404Z,14.10
2023-05-05T05:14:27.119Z,14.10
2023-05-05T05:16:56.752Z,14.10
2023-05-05T05:19:23.514Z,14.10
2023-05-05T05:21:50.274Z,14.10
2023-05-05T05:24:17.266Z,14.10
2023-05-05T05:26:43.986Z,14.20
2023-05-05T05:29:10.715Z,14.20
2023-05-05T05:31:37.561Z,14.30
2023-05-05T05:34:04.321Z,14.30
2023-05-05T05:36:31.195Z,14.30
2023-05-05T05:38:58.016Z,14.40
2023-05-05T05:41:24.886Z,14.40
2023-05-05T05:43:51.714Z,14.40
2023-05-05T05:46:18.717Z,14.50
2023-05-05T05:48:45.404Z,14.50
2023-05-05T05:51:12.660Z,14.60
2023-05-05T05:53:39.939Z,14.60
2023-05-05T05:56:07.203Z,14.60
2023-05-05T05:58:33.950Z,14.70
2023-05-05T06:01:00.785Z,14.70
2023-05-05T06:03:28.172Z,14.70
2023-05-05T06:05:55.093Z,14.80
2023-05-05T06:08:24.794Z,14.80
2023-05-05T06:10:52.119Z,14.90
2023-05-05T06:13:20.914Z,14.90
2023-05-05T06:15:47.904Z,14.90
2023-05-05T06:18:15.065Z,15.00
2023-05-05T06:20:41.989Z,15.00
2023-05-05T06:23:09.011Z,15.10
2023-05-05T06:25:35.940Z,15.10
2023-05-05T06:28:02.744Z,15.10
2023-05-05T06:30:29.537Z,15.10
2023-05-05T06:32:56.325Z,15.20
2023-05-05T06:35:23.193Z,15.20
2023-05-05T06:37:49.974Z,15.20
2023-05-05T06:40:17.615Z,15.30
2023-05-05T06:42:45.030Z,15.30
2023-05-05T06:45:11.926Z,15.40
2023-05-05T06:47:39.524Z,15.40
2023-05-05T06:50:07.933Z,15.40
2023-05-05T06:52:35.974Z,15.40
2023-05-05T06:55:02.629Z,15.40
2023-05-05T06:57:29.578Z,15.50
2023-05-05T06:59:56.280Z,15.50
2023-05-05T07:02:26.718Z,15.50
2023-05-05T07:04:54.201Z,15.50
2023-05-05T07:07:21.334Z,15.50
2023-05-05T07:09:48.036Z,15.50
2023-05-05T07:12:14.814Z,15.60
2023-05-05T07:14:41.532Z,15.70
2023-05-05T07:17:08.316Z,15.80
2023-05-05T07:19:35.102Z,15.80
2023-05-05T07:22:01.811Z,15.90
2023-05-05T07:24:28.519Z,15.90
2023-05-05T07:26:55.236Z,15.90
2023-05-05T07:29:21.934Z,15.90
2023-05-05T07:31:48.664Z,15.90
2023-05-05T07:34:17.368Z,15.90
2023-05-05T07:36:44.519Z,15.90
2023-05-05T07:39:11.211Z,15.90
2023-05-05T07:41:38.381Z,15.90
2023-05-05T07:44:05.317Z,15.90
2023-05-05T07:46:32.111Z,15.90
2023-05-05T07:48:58.930Z,15.90
2023-05-05T07:51:25.660Z,15.90
2023-05-05T07:53:52.491Z,16.00
2023-05-05T07:56:19.868Z,16.00
2023-05-05T07:58:50.894Z,15.90
2023-05-05T08:01:20.204Z,16.00
2023-05-05T08:03:48.585Z,15.90
2023-05-05T08:06:15.537Z,15.90
2023-05-05T08:08:44.789Z,15.90
2023-05-05T08:11:11.544Z,15.80
2023-05-05T08:13:40.420Z,15.80
2023-05-05T08:16:07.519Z,15.90
2023-05-05T08:18:34.312Z,16.00
2023-05-05T08:21:01.087Z,16.20
2023-05-05T08:23:27.814Z,16.50
2023-05-05T08:25:54.527Z,16.60
2023-05-05T08:28:21.301Z,16.90
2023-05-05T08:30:48.010Z,17.10
2023-05-05T08:33:14.860Z,17.40
2023-05-05T08:35:42.579Z,17.60
2023-05-05T08:38:10.606Z,17.60
2023-05-05T08:40:38.306Z,17.70
2023-05-05T08:43:05.150Z,17.70
2023-05-05T08:45:32.141Z,17.60
2023-05-05T08:48:01.849Z,17.60
2023-05-05T08:50:29.126Z,17.70
2023-05-05T08:53:11.668Z,17.80
2023-05-05T08:55:52.380Z,17.70
2023-05-05T08:58:19.313Z,17.80
2023-05-05T09:00:46.253Z,17.90
2023-05-05T09:03:13.200Z,18.00
2023-05-05T09:05:40.249Z,18.10
2023-05-05T09:08:07.006Z,18.20
2023-05-05T09:10:34.083Z,18.10
2023-05-05T09:13:00.922Z,18.10
2023-05-05T09:15:27.674Z,18.10
2023-05-05T09:17:59.493Z,18.20
2023-05-05T09:20:36.912Z,18.30
2023-05-05T09:23:13.596Z,18.50
2023-05-05T09:25:40.930Z,18.80
2023-05-05T09:28:15.117Z,19.10
2023-05-05T09:30:43.215Z,19.20
2023-05-05T09:33:10.091Z,19.20
2023-05-05T09:35:53.286Z,19.20
2023-05-05T09:38:20.445Z,19.30
2023-05-05T09:40:48.152Z,19.20
2023-05-05T09:43:15.989Z,19.20
2023-05-05T09:45:42.791Z,19.20
2023-05-05T09:48:30.460Z,19.20
2023-05-05T09:50:57.897Z,19.30
2023-05-05T09:53:25.242Z,19.40
2023-05-05T09:55:58.800Z,19.40
2023-05-05T09:58:26.210Z,19.40
2023-05-05T10:00:53.930Z,19.40
2023-05-05T10:03:20.725Z,19.50
2023-05-05T10:05:50.618Z,19.70
2023-05-05T10:08:21.108Z,19.90
2023-05-05T10:10:51.896Z,20.00
2023-05-05T10:13:19.637Z,20.00
2023-05-05T10:15:47.353Z,20.20
2023-05-05T10:18:14.930Z,20.50
2023-05-05T10:20:42.469Z,20.70
2023-05-05T10:23:10.428Z,21.10
2023-05-05T10:25:41.946Z,21.40
2023-05-05T10:28:09.049Z,21.70
2023-05-05T10:30:39.532Z,21.90
2023-05-05T10:33:32.869Z,21.80
2023-05-05T10:36:03.765Z,21.60
2023-05-05T10:38:30.529Z,22.30
2023-05-05T10:40:59.085Z,22.70
2023-05-05T10:43:25.922Z,22.50
2023-05-05T10:45:53.975Z,23.00
2023-05-05T10:48:32.819Z,23.10
2023-05-05T10:51:38.447Z,22.70
2023-05-05T10:54:31.536Z,22.20
2023-05-05T10:56:58.502Z,21.70
2023-05-05T10:59:37.511Z,21.80
2023-05-05T11:02:19.949Z,22.90
2023-05-05T11:05:05.874Z,24.30
2023-05-05T11:07:32.673Z,25.00
2023-05-05T11:10:00.544Z,25.40
2023-05-05T11:12:28.040Z,25.80
2023-05-05T11:15:28.825Z,25.60
2023-05-05T11:17:56.026Z,26.00
2023-05-05T11:20:38.018Z,26.80
2023-05-05T11:23:05.308Z,27.60
2023-05-05T11:25:35.212Z,27.20
2023-05-05T11:28:11.414Z,26.70
2023-05-05T11:31:01.734Z,27.40
2023-05-05T11:33:31.835Z,28.60
2023-05-05T11:36:07.995Z,29.40
2023-05-05T11:39:18.383Z,29.30
2023-05-05T11:42:15.844Z,28.80
2023-05-05T11:44:45.177Z,27.80
2023-05-05T11:47:14.952Z,26.60
2023-05-05T11:49:41.660Z,25.50
2023-05-05T11:52:12.763Z,24.60
2023-05-05T11:54:41.218Z,24.00
2023-05-05T11:57:08.092Z,24.60
2023-05-05T11:59:56.984Z,25.90
2023-05-05T12:02:24.464Z,27.20
2023-05-05T12:04:51.477Z,28.60
2023-05-05T12:07:19.752Z,29.30
2023-05-05T12:09:48.831Z,29.40
2023-05-05T12:12:15.875Z,29.20
2023-05-05T12:14:48.986Z,28.90
2023-05-05T12:17:15.667Z,28.90
2023-05-05T12:19:51.056Z,29.10
2023-05-05T12:22:21.149Z,28.90
2023-05-05T12:25:03.520Z,28.30
2023-05-05T12:27:30.215Z,27.60
2023-05-05T12:29:57.473Z,27.30
2023-05-05T12:32:25.775Z,27.20
2023-05-05T12:34:53.716Z,27.70
2023-05-05T12:37:21.017Z,28.60
2023-05-05T12:39:48.394Z,29.30
2023-05-05T12:42:15.105Z,30.30
2023-05-05T12:44:41.849Z,31.20
2023-05-05T12:47:08.579Z,30.80
2023-05-05T12:49:50.980Z,30.70
2023-05-05T12:52:18.024Z,30.50
2023-05-05T12:54:57.694Z,30.50
2023-05-05T12:57:24.755Z,30.30
2023-05-05T12:59:53.460Z,29.90
2023-05-05T13:02:28.268Z,29.30
2023-05-05T13:04:57.620Z,29.40
2023-05-05T13:07:24.386Z,29.60
2023-05-05T13:09:51.232Z,29.20
2023-05-05T13:12:18.173Z,28.60
2023-05-05T13:14:45.060Z,28.40
2023-05-05T13:17:11.887Z,28.50
2023-05-05T13:19:38.783Z,29.20
2023-05-05T13:22:05.533Z,30.00
2023-05-05T13:24:46.562Z,31.10
2023-05-05T13:27:17.151Z,31.90
2023-05-05T13:29:43.894Z,32.20
2023-05-05T13:32:10.611Z,31.80
2023-05-05T13:34:37.412Z,31.00
2023-05-05T13:37:07.191Z,30.40
2023-05-05T13:39:34.050Z,30.60
2023-05-05T13:42:00.769Z,31.40
2023-05-05T13:44:27.451Z,32.60
2023-05-05T13:46:54.304Z,33.80
2023-05-05T13:49:21.138Z,34.60
2023-05-05T13:51:47.907Z,34.80
2023-05-05T13:54:17.421Z,34.30
2023-05-05T13:56:44.439Z,34.60
2023-05-05T13:59:16.234Z,35.00
2023-05-05T14:01:42.903Z,34.40
2023-05-05T14:04:09.688Z,34.60
2023-05-05T14:06:36.483Z,35.10
2023-05-05T14:09:03.443Z,35.80
2023-05-05T14:11:30.130Z,36.30
2023-05-05T14:13:56.929Z,36.50
2023-05-05T14:16:26.673Z,37.00
2023-05-05T14:18:54.713Z,36.60
2023-05-05T14:21:21.495Z,35.20
2023-05-05T14:23:48.228Z,34.20
2023-05-05T14:26:14.934Z,33.70
2023-05-05T14:28:41.674Z,34.00
2023-05-05T14:31:08.435Z,34.10
2023-05-05T14:33:35.325Z,33.80
2023-05-05T14:36:02.154Z,32.70
2023-05-05T14:38:28.983Z,31.40
2023-05-05T14:40:55.922Z,30.20
2023-05-05T14:43:22.648Z,29.40
2023-05-05T14:45:49.504Z,28.90
2023-05-05T14:48:16.294Z,28.60
2023-05-05T14:50:43.095Z,28.20
2023-05-05T14:53:09.919Z,27.80
2023-05-05T14:55:36.839Z,27.20
2023-05-05T14:58:03.657Z,26.70
2023-05-05T15:00:30.460Z,26.30
2023-05-05T15:02:57.299Z,26.20
2023-05-05T15:05:24.134Z,26.70
2023-05-05T15:07:54.115Z,27.00
2023-05-05T15:10:22.113Z,26.90
2023-05-05T15:12:49.100Z,26.90
2023-05-05T15:15:15.932Z,26.60
2023-05-05T15:17:42.918Z,26.60
2023-05-05T15:20:10.177Z,26.70
2023-05-05T15:22:37.030Z,26.70
2023-05-05T15:25:03.952Z,26.70
2023-05-05T15:27:30.701Z,26.60
2023-05-05T15:29:57.575Z,26.50
2023-05-05T15:32:24.395Z,26.60
2023-05-05T15:34:51.169Z,26.90
2023-05-05T15:37:17.949Z,27.20
2023-05-05T15:39:44.663Z,27.30
2023-05-05T15:42:11.538Z,27.30
2023-05-05T15:44:38.386Z,27.40
2023-05-05T15:47:05.758Z,27.70
2023-05-05T15:49:32.569Z,27.80
2023-05-05T15:51:59.306Z,27.80
2023-05-05T15:54:26.112Z,27.70
2023-05-05T15:56:52.852Z,27.60
2023-05-05T15:59:19.563Z,27.60
2023-05-05T16:01:47.090Z,27.60
2023-05-05T16:04:14.181Z,27.70
2023-05-05T16:06:40.905Z,27.60
2023-05-05T16:09:07.692Z,27.30
2023-05-05T16:11:34.609Z,27.20
2023-05-05T16:14:01.347Z,27.10
2023-05-05T16:16:28.406Z,26.90
2023-05-05T16:18:55.228Z,26.70
2023-05-05T16:21:22.019Z,26.50
2023-05-05T16:23:48.814Z,26.40
2023-05-05T16:26:15.582Z,26.30
2023-05-05T16:28:42.284Z,26.30
2023-05-05T16:31:09.466Z,26.10
2023-05-05T16:33:37.149Z,25.80
2023-05-05T16:36:04.057Z,25.40
2023-05-05T16:38:30.815Z,25.00
2023-05-05T16:40:57.577Z,24.70
2023-05-05T16:43:24.317Z,24.80
2023-05-05T16:45:51.370Z,24.70
2023-05-05T16:48:18.298Z,24.60
2023-05-05T16:50:45.444Z,24.50
2023-05-05T16:53:12.222Z,24.40
2023-05-05T16:55:38.965Z,24.10
2023-05-05T16:58:05.768Z,23.70
2023-05-05T17:00:32.569Z,23.40
2023-05-05T17:02:59.419Z,23.20
2023-05-05T17:05:26.323Z,22.90
2023-05-05T17:07:53.109Z,22.70
2023-05-05T17:10:19.845Z,22.60
2023-05-05T17:12:46.648Z,22.40
2023-05-05T17:15:14.718Z,22.20
2023-05-05T17:17:43.025Z,22.10
2023-05-05T17:20:10.659Z,21.90
2023-05-05T17:22:37.426Z,21.80
2023-05-05T17:25:04.522Z,21.70
2023-05-05T17:27:31.284Z,21.70
2023-05-05T17:29:58.126Z,21.70
2023-05-05T17:32:24.959Z,21.70
2023-05-05T17:34:51.707Z,21.70
2023-05-05T17:37:18.544Z,21.70
2023-05-05T17:39:45.447Z,21.60
2023-05-05T17:42:12.163Z,21.60
2023-05-05T17:44:39.048Z,21.50
2023-05-05T17:47:05.861Z,21.40
2023-05-05T17:49:32.627Z,21.20
2023-05-05T17:51:59.334Z,21.10
2023-05-05T17:54:26.162Z,21.00
2023-05-05T17:56:52.852Z,21.00
2023-05-05T17:59:19.608Z,20.90
2023-05-05T18:01:46.451Z,20.80
2023-05-05T18:04:13.367Z,20.60
2023-05-05T18:06:40.369Z,20.60
2023-05-05T18:09:07.511Z,20.50
2023-05-05T18:11:35.339Z,20.40
2023-05-05T18:14:02.173Z,20.30
2023-05-05T18:16:29.008Z,20.20
2023-05-05T18:18:55.745Z,20.10
2023-05-05T18:21:22.491Z,20.00
2023-05-05T18:23:49.509Z,19.90
2023-05-05T18:26:16.712Z,19.90
2023-05-05T18:28:43.767Z,19.90
2023-05-05T18:31:10.934Z,19.80
2023-05-05T18:33:37.813Z,19.80
2023-05-05T18:36:06.237Z,19.80
2023-05-05T18:38:32.980Z,19.70
2023-05-05T18:40:59.801Z,19.70
2023-05-05T18:43:28.043Z,19.60
2023-05-05T18:45:55.020Z,19.50
2023-05-05T18:48:21.805Z,19.40
2023-05-05T18:50:48.481Z,19.30
2023-05-05T18:53:15.229Z,19.20
2023-05-05T18:55:41.915Z,19.00
2023-05-05T18:58:08.624Z,18.90
2023-05-05T19:00:35.543Z,18.80
2023-05-05T19:03:02.454Z,18.80
2023-05-05T19:05:29.223Z,18.70
2023-05-05T19:07:55.899Z,18.70
2023-05-05T19:10:22.718Z,18.60
2023-05-05T19:12:49.519Z,18.60
2023-05-05T19:15:16.244Z,18.50
2023-05-05T19:17:43.110Z,18.40
2023-05-05T19:20:10.528Z,18.40
2023-05-05T19:22:37.445Z,18.40
2023-05-05T19:25:04.383Z,18.30
2023-05-05T19:27:31.097Z,18.30
2023-05-05T19:29:57.907Z,18.30
2023-05-05T19:32:24.787Z,18.30
2023-05-05T19:34:51.497Z,18.30
2023-05-05T19:37:18.220Z,18.20
2023-05-05T19:39:44.906Z,18.10
2023-05-05T19:42:11.931Z,18.10
2023-05-05T19:44:38.692Z,18.10
2023-05-05T19:47:05.745Z,18.10
2023-05-05T19:49:32.578Z,18.10
2023-05-05T19:51:59.553Z,18.10
2023-05-05T19:54:26.969Z,18.00
2023-05-05T19:56:55.213Z,18.00
2023-05-05T19:59:22.078Z,18.00
2023-05-05T20:01:48.904Z,17.90
2023-05-05T20:04:17.983Z,17.80
2023-05-05T20:06:44.798Z,17.80
2023-05-05T20:09:11.605Z,17.70
2023-05-05T20:11:38.363Z,17.60
2023-05-05T20:14:07.753Z,17.50
2023-05-05T20:16:34.658Z,17.50
2023-05-05T20:19:01.421Z,17.40
2023-05-05T20:21:28.212Z,17.40
2023-05-05T20:23:54.992Z,17.40
2023-05-05T20:26:21.837Z,17.40
2023-05-05T20:28:48.589Z,17.50
2023-05-05T20:31:15.414Z,17.40
2023-05-05T20:33:42.247Z,17.40
2023-05-05T20:36:08.981Z,17.30
2023-05-05T20:38:35.701Z,17.30
2023-05-05T20:41:02.521Z,17.20
2023-05-05T20:43:29.332Z,17.10
2023-05-05T20:45:56.072Z,17.10
2023-05-05T20:48:22.842Z,17.10
2023-05-05T20:50:49.627Z,17.00
2023-05-05T20:53:16.402Z,17.00
2023-05-05T20:55:43.239Z,17.00
2023-05-05T20:58:10.002Z,16.90
2023-05-05T21:00:36.876Z,16.80
2023-05-05T21:03:03.939Z,16.80
2023-05-05T21:05:30.902Z,16.80
2023-05-05T21:07:59.216Z,16.70
2023-05-05T21:10:27.494Z,16.70
2023-05-05T21:12:54.270Z,16.70
2023-05-05T21:15:21.061Z,16.60
2023-05-05T21:17:48.002Z,16.60
2023-05-05T21:20:14.878Z,16.50
2023-05-05T21:22:41.580Z,16.50
2023-05-05T21:25:16.337Z,16.50
2023-05-05T21:27:43.027Z,16.40
2023-05-05T21:30:11.152Z,16.40
2023-05-05T21:32:38.918Z,16.30
2023-05-05T21:35:07.229Z,16.30
2023-05-05T21:37:34.114Z,16.20
2023-05-05T21:40:00.851Z,16.20
2023-05-05T21:42:29.524Z,16.10
2023-05-05T21:44:56.408Z,16.10
2023-05-05T21:47:23.192Z,16.10
2023-05-05T21:49:49.961Z,16.10
2023-05-05T21:52:17.081Z,16.10
2023-05-05T21:54:43.996Z,16.10
2023-05-05T21:57:10.799Z,16.10
2023-05-05T21:59:37.577Z,16.10
2023-05-05T22:02:04.321Z,16.10
2023-05-05T22:04:31.023Z,16.10
2023-05-05T22:06:58.067Z,16.10
2023-05-05T22:09:27.407Z,16.10
2023-05-05T22:11:54.095Z,16.10
2023-05-05T22:14:20.892Z,16.10
2023-05-05T22:16:47.691Z,16.10
2023-05-05T22:19:14.471Z,16.10
2023-05-05T22:21:41.182Z,16.10
2023-05-05T22:24:07.974Z,16.10
2023-05-05T22:26:34.692Z,16.00
2023-05-05T22:29:01.413Z,16.00
2023-05-05T22:31:28.194Z,15.90
2023-05-05T22:33:56.358Z,15.90
2023-05-05T22:36:23.242Z,15.90
2023-05-05T22:38:50.052Z,15.80
2023-05-05T22:41:16.905Z,15.80
2023-05-05T22:43:43.625Z,15.70
2023-05-05T22:46:10.337Z,15.70
2023-05-05T22:48:37.054Z,15.60
2023-05-05T22:51:04.178Z,15.60
2023-05-05T22:53:30.877Z,15.50
2023-05-05T22:55:57.598Z,15.50
2023-05-05T22:58:25.092Z,15.50
2023-05-05T23:00:51.916Z,15.40
2023-05-05T23:03:18.778Z,15.50
2023-05-05T23:05:45.909Z,15.40
2023-05-05T23:08:12.633Z,15.40
2023-05-05T23:10:39.392Z,15.40
2023-05-05T23:13:06.155Z,15.40
2023-05-05T23:15:33.007Z,15.40
2023-05-05T23:17:59.788Z,15.40
2023-05-05T23:20:26.694Z,15.40
2023-05-05T23:22:53.407Z,15.40
2023-05-05T23:25:20.552Z,15.40
2023-05-05T23:27:47.228Z,15.40
2023-05-05T23:30:14.174Z,15.40
2023-05-05T23:32:40.962Z,15.30
2023-05-05T23:35:08.257Z,15.40
2023-05-05T23:37:36.270Z,15.30
2023-05-05T23:40:03.724Z,15.40
2023-05-05T23:42:30.405Z,15.30
2023-05-05T23:44:57.202Z,15.30
2023-05-05T23:47:25.233Z,15.30
2023-05-05T23:49:51.959Z,15.30
2023-05-05T23:52:18.776Z,15.30
2023-05-05T23:54:45.602Z,15.30
2023-05-05T23:57:12.484Z,15.30
2023-05-05T23:59:39.419Z,15.20
